Terminal Aerodrome Forecast
Issued by NWS Charleston, SC

Home | Current Version | Previous Version | Text Only | Print | Product List | Glossary On
Versions: 1 2 3 4 5 6 7 8 9 10 11 12 13 14 15
878
FTUS42 KCHS 211120
TAFSAV
TAF
KSAV 211120Z 2112/2212 06009KT P6SM BKN070
     FM211400 08011KT P6SM SCT035 BKN070
     FM211700 10014G21KT P6SM SCT040 BKN070
     FM220000 09008KT P6SM FEW040 BKN070=

USA.gov is the U.S. government's official web portal to all federal, state and local government web resources and services.